createdAt,value
2023-04-10T00:02:00.624Z,7.70
2023-04-10T00:04:28.513Z,7.66
2023-04-10T00:06:55.626Z,7.67
2023-04-10T00:09:22.223Z,7.57
2023-04-10T00:11:48.845Z,7.72
2023-04-10T00:14:15.374Z,7.74
2023-04-10T00:16:42.006Z,7.72
2023-04-10T00:19:08.803Z,7.73
2023-04-10T00:21:35.348Z,7.76
2023-04-10T00:24:01.950Z,7.78
2023-04-10T00:26:28.502Z,7.73
2023-04-10T00:28:55.290Z,7.63
2023-04-10T00:31:21.981Z,7.68
2023-04-10T00:33:48.662Z,7.65
2023-04-10T00:36:16.003Z,7.42
2023-04-10T00:38:42.633Z,7.33
2023-04-10T00:41:09.197Z,7.35
2023-04-10T00:43:35.893Z,7.42
2023-04-10T00:46:02.712Z,7.41
2023-04-10T00:48:29.694Z,7.35
2023-04-10T00:50:56.276Z,7.32
2023-04-10T00:53:23.185Z,7.35
2023-04-10T00:55:50.503Z,7.28
2023-04-10T00:58:17.136Z,7.21
2023-04-10T01:00:43.764Z,7.14
2023-04-10T01:03:13.283Z,7.25
2023-04-10T01:05:51.624Z,7.32
2023-04-10T01:08:23.044Z,7.40
2023-04-10T01:11:02.577Z,7.47
2023-04-10T01:14:00.350Z,7.46
2023-04-10T01:16:31.570Z,7.20
2023-04-10T01:19:23.567Z,6.90
2023-04-10T01:21:52.833Z,6.92
2023-04-10T01:25:01.029Z,7.04
2023-04-10T01:27:33.511Z,7.05
2023-04-10T01:30:02.741Z,7.04
2023-04-10T01:32:30.906Z,7.17
2023-04-10T01:35:03.633Z,7.22
2023-04-10T01:37:32.170Z,7.24
2023-04-10T01:40:04.299Z,7.09
2023-04-10T01:42:34.178Z,7.18
2023-04-10T01:45:02.012Z,7.27
2023-04-10T01:47:29.114Z,7.30
2023-04-10T01:49:57.339Z,7.38
2023-04-10T01:52:25.001Z,7.41
2023-04-10T01:54:53.387Z,7.28
2023-04-10T01:57:20.468Z,7.40
2023-04-10T01:59:47.355Z,7.46
2023-04-10T02:02:14.053Z,7.51
2023-04-10T02:04:40.842Z,7.46
2023-04-10T02:07:12.279Z,7.11
2023-04-10T02:09:57.687Z,7.03
2023-04-10T02:12:36.944Z,6.94
2023-04-10T02:15:06.496Z,6.90
2023-04-10T02:17:34.854Z,6.68
2023-04-10T02:20:04.197Z,6.71
2023-04-10T02:22:31.086Z,6.78
2023-04-10T02:24:58.788Z,6.77
2023-04-10T02:27:29.585Z,6.74
2023-04-10T02:29:56.887Z,6.81
2023-04-10T02:32:24.268Z,6.88
2023-04-10T02:34:50.786Z,6.83
2023-04-10T02:37:17.500Z,6.68
2023-04-10T02:39:44.088Z,6.78
2023-04-10T02:42:11.171Z,6.70
2023-04-10T02:44:39.465Z,6.61
2023-04-10T02:47:07.266Z,6.49
2023-04-10T02:49:35.069Z,6.13
2023-04-10T02:52:02.284Z,6.27
2023-04-10T02:54:28.955Z,6.41
2023-04-10T02:56:57.711Z,6.43
2023-04-10T02:59:24.387Z,6.52
2023-04-10T03:01:52.409Z,6.55
2023-04-10T03:04:19.629Z,6.49
2023-04-10T03:06:46.430Z,6.56
2023-04-10T03:09:13.021Z,6.61
2023-04-10T03:11:39.616Z,6.69
2023-04-10T03:14:06.477Z,6.67
2023-04-10T03:16:33.136Z,6.63
2023-04-10T03:18:59.948Z,6.64
2023-04-10T03:21:27.447Z,6.42
2023-04-10T03:23:54.251Z,6.70
2023-04-10T03:26:21.263Z,6.74
2023-04-10T03:28:47.894Z,6.72
2023-04-10T03:31:14.520Z,6.80
2023-04-10T03:33:41.350Z,6.61
2023-04-10T03:36:08.714Z,6.56
2023-04-10T03:38:35.829Z,6.42
2023-04-10T03:41:02.288Z,6.37
2023-04-10T03:43:31.344Z,6.31
2023-04-10T03:45:58.217Z,6.25
2023-04-10T03:48:28.262Z,6.32
2023-04-10T03:50:55.530Z,6.26
2023-04-10T03:53:22.150Z,6.32
2023-04-10T03:55:48.675Z,6.11
2023-04-10T03:58:15.424Z,6.22
2023-04-10T04:00:42.046Z,6.30
2023-04-10T04:03:08.882Z,6.38
2023-04-10T04:05:35.746Z,6.45
2023-04-10T04:08:03.938Z,6.52
2023-04-10T04:10:30.564Z,6.50
2023-04-10T04:12:57.142Z,6.48
2023-04-10T04:15:23.995Z,6.48
2023-04-10T04:17:51.234Z,6.47
2023-04-10T04:20:17.906Z,6.33
2023-04-10T04:22:44.507Z,6.30
2023-04-10T04:25:11.783Z,6.27
2023-04-10T04:27:38.610Z,6.30
2023-04-10T04:30:06.465Z,6.39
2023-04-10T04:32:33.265Z,6.50
2023-04-10T04:34:59.932Z,6.53
2023-04-10T04:37:26.567Z,6.49
2023-04-10T04:39:53.115Z,6.46
2023-04-10T04:42:19.716Z,6.40
2023-04-10T04:44:46.348Z,6.35
2023-04-10T04:47:12.918Z,6.31
2023-04-10T04:49:39.499Z,6.45
2023-04-10T04:52:06.116Z,6.46
2023-04-10T04:54:32.688Z,6.36
2023-04-10T04:56:59.275Z,6.46
2023-04-10T04:59:25.872Z,6.46
2023-04-10T05:01:52.696Z,6.48
2023-04-10T05:04:20.709Z,6.51
2023-04-10T05:06:47.420Z,6.54
2023-04-10T05:09:13.981Z,6.66
2023-04-10T05:11:41.073Z,6.67
2023-04-10T05:14:07.715Z,6.75
2023-04-10T05:16:34.281Z,6.73
2023-04-10T05:19:00.854Z,6.64
2023-04-10T05:21:27.622Z,6.68
2023-04-10T05:23:54.263Z,6.56
2023-04-10T05:26:21.003Z,6.68
2023-04-10T05:28:47.660Z,6.82
2023-04-10T05:31:14.277Z,6.73
2023-04-10T05:33:40.989Z,6.86
2023-04-10T05:36:08.033Z,6.86
2023-04-10T05:38:34.623Z,6.94
2023-04-10T05:41:01.178Z,6.92
2023-04-10T05:43:27.807Z,6.96
2023-04-10T05:45:54.460Z,7.05
2023-04-10T05:48:21.183Z,7.13
2023-04-10T05:50:47.739Z,7.40
2023-04-10T05:53:14.932Z,7.63
2023-04-10T05:55:41.528Z,7.84
2023-04-10T05:58:08.106Z,8.03
2023-04-10T06:00:34.689Z,8.22
2023-04-10T06:03:01.712Z,8.29
2023-04-10T06:05:28.442Z,8.27
2023-04-10T06:07:57.575Z,8.36
2023-04-10T06:10:24.852Z,8.47
2023-04-10T06:12:51.405Z,8.72
2023-04-10T06:15:18.111Z,9.11
2023-04-10T06:17:44.794Z,9.44
2023-04-10T06:20:11.734Z,10.06
2023-04-10T06:22:38.351Z,10.28
2023-04-10T06:25:05.541Z,10.31
2023-04-10T06:27:33.892Z,10.45
2023-04-10T06:30:00.481Z,10.45
2023-04-10T06:32:27.096Z,10.24
2023-04-10T06:34:53.632Z,10.55
2023-04-10T06:37:20.216Z,10.44
2023-04-10T06:39:46.809Z,10.61
2023-04-10T06:42:13.412Z,10.52
2023-04-10T06:44:39.995Z,10.79
2023-04-10T06:47:06.937Z,10.75
2023-04-10T06:49:33.689Z,10.45
2023-04-10T06:52:00.287Z,10.60
2023-04-10T06:54:26.874Z,11.26
2023-04-10T06:56:58.714Z,11.85
2023-04-10T06:59:25.671Z,12.48
2023-04-10T07:01:52.262Z,12.92
2023-04-10T07:04:19.016Z,13.23
2023-04-10T07:06:45.628Z,13.53
2023-04-10T07:09:12.279Z,14.01
2023-04-10T07:11:38.893Z,14.07
2023-04-10T07:14:05.450Z,14.04
2023-04-10T07:16:32.766Z,13.76
2023-04-10T07:18:59.286Z,14.13
2023-04-10T07:21:27.208Z,14.18
2023-04-10T07:23:53.891Z,14.39
2023-04-10T07:26:20.740Z,14.62
2023-04-10T07:28:47.332Z,14.37
2023-04-10T07:31:14.217Z,14.46
2023-04-10T07:33:40.952Z,14.63
2023-04-10T07:36:08.246Z,14.52
2023-04-10T07:38:34.883Z,14.46
2023-04-10T07:41:01.567Z,14.05
2023-04-10T07:43:28.096Z,14.18
2023-04-10T07:45:56.066Z,14.00
2023-04-10T07:48:22.908Z,14.18
2023-04-10T07:50:49.653Z,14.17
2023-04-10T07:53:16.286Z,14.33
2023-04-10T07:55:44.645Z,14.26
2023-04-10T07:58:11.305Z,13.99
2023-04-10T08:00:37.911Z,14.25
2023-04-10T08:03:05.977Z,14.54
2023-04-10T08:05:33.201Z,14.61
2023-04-10T08:07:59.998Z,14.60
2023-04-10T08:10:26.813Z,14.48
2023-04-10T08:12:53.642Z,14.55
2023-04-10T08:15:20.591Z,14.39
2023-04-10T08:17:47.489Z,14.00
2023-04-10T08:20:14.380Z,14.04
2023-04-10T08:22:41.240Z,14.10
2023-04-10T08:25:08.312Z,14.03
2023-04-10T08:27:35.101Z,14.15
2023-04-10T08:30:01.958Z,14.44
2023-04-10T08:32:29.354Z,14.59
2023-04-10T08:34:56.161Z,14.57
2023-04-10T08:37:22.792Z,14.56
2023-04-10T08:39:49.349Z,14.53
2023-04-10T08:42:16.100Z,14.59
2023-04-10T08:44:42.634Z,14.62
2023-04-10T08:47:10.377Z,14.63
2023-04-10T08:49:39.694Z,14.66
2023-04-10T08:52:09.677Z,14.34
2023-04-10T08:54:38.977Z,14.29
2023-04-10T08:57:09.763Z,14.68
2023-04-10T08:59:37.384Z,15.18
2023-04-10T09:02:04.022Z,15.33
2023-04-10T09:04:31.874Z,15.38
2023-04-10T09:06:58.455Z,15.60
2023-04-10T09:09:24.978Z,15.71
2023-04-10T09:12:00.478Z,15.57
2023-04-10T09:14:32.145Z,15.44
2023-04-10T09:17:24.192Z,15.65
2023-04-10T09:19:55.928Z,15.94
2023-04-10T09:22:31.074Z,15.29
2023-04-10T09:24:59.491Z,15.51
2023-04-10T09:27:35.178Z,15.53
2023-04-10T09:30:03.257Z,15.26
2023-04-10T09:32:36.062Z,15.28
2023-04-10T09:35:02.898Z,15.03
2023-04-10T09:37:33.115Z,14.64
2023-04-10T09:39:59.743Z,14.76
2023-04-10T09:42:37.327Z,14.61
2023-04-10T09:45:05.217Z,14.63
2023-04-10T09:47:33.263Z,14.58
2023-04-10T09:50:01.188Z,14.64
2023-04-10T09:52:29.883Z,14.51
2023-04-10T09:54:58.232Z,14.39
2023-04-10T09:57:27.697Z,14.16
2023-04-10T09:59:59.132Z,14.11
2023-04-10T10:02:28.854Z,14.01
2023-04-10T10:04:57.269Z,13.90
2023-04-10T10:07:24.388Z,14.06
2023-04-10T10:09:52.874Z,14.31
2023-04-10T10:12:24.344Z,14.77
2023-04-10T10:15:01.235Z,15.20
2023-04-10T10:17:38.393Z,15.21
2023-04-10T10:20:07.955Z,15.27
2023-04-10T10:22:35.634Z,15.45
2023-04-10T10:25:03.268Z,15.66
2023-04-10T10:27:37.718Z,15.55
2023-04-10T10:30:20.289Z,15.62
2023-04-10T10:32:52.675Z,15.71
2023-04-10T10:35:19.981Z,15.56
2023-04-10T10:37:47.788Z,15.42
2023-04-10T10:40:31.066Z,15.56
2023-04-10T10:42:57.633Z,15.75
2023-04-10T10:45:31.358Z,15.54
2023-04-10T10:47:58.030Z,15.51
2023-04-10T10:50:24.990Z,15.20
2023-04-10T10:52:54.052Z,15.23
2023-04-10T10:55:27.501Z,15.36
2023-04-10T10:57:56.227Z,15.47
2023-04-10T11:00:27.166Z,15.57
2023-04-10T11:03:08.997Z,15.62
2023-04-10T11:05:55.601Z,15.51
2023-04-10T11:08:44.501Z,15.56
2023-04-10T11:11:13.005Z,15.40
2023-04-10T11:13:41.815Z,15.28
2023-04-10T11:16:12.896Z,15.23
2023-04-10T11:18:45.680Z,15.37
2023-04-10T11:21:16.760Z,15.32
2023-04-10T11:23:52.840Z,15.19
2023-04-10T11:26:43.624Z,15.27
2023-04-10T11:29:14.181Z,15.35
2023-04-10T11:31:40.857Z,15.34
2023-04-10T11:34:08.385Z,15.40
2023-04-10T11:36:39.051Z,15.27
2023-04-10T11:39:08.921Z,15.44
2023-04-10T11:41:40.140Z,15.33
2023-04-10T11:44:08.823Z,15.46
2023-04-10T11:46:40.433Z,15.52
2023-04-10T11:49:09.859Z,15.56
2023-04-10T11:51:40.815Z,15.52
2023-04-10T11:54:12.272Z,15.55
2023-04-10T11:56:41.142Z,15.47
2023-04-10T11:59:11.122Z,15.45
2023-04-10T12:01:39.850Z,15.53
2023-04-10T12:04:21.461Z,15.44
2023-04-10T12:06:53.399Z,15.53
2023-04-10T12:09:21.394Z,15.38
2023-04-10T12:11:59.823Z,15.29
2023-04-10T12:14:44.631Z,15.21
2023-04-10T12:17:12.970Z,15.13
2023-04-10T12:19:40.327Z,15.08
2023-04-10T12:22:07.798Z,15.16
2023-04-10T12:24:42.056Z,15.16
2023-04-10T12:27:19.130Z,15.13
2023-04-10T12:29:47.035Z,15.21
2023-04-10T12:32:13.854Z,15.20
2023-04-10T12:34:40.949Z,15.25
2023-04-10T12:37:09.776Z,15.34
2023-04-10T12:39:36.561Z,15.51
2023-04-10T12:42:13.401Z,15.51
2023-04-10T12:44:59.823Z,15.60
2023-04-10T12:47:28.345Z,15.66
2023-04-10T12:50:10.847Z,15.73
2023-04-10T12:52:40.440Z,15.80
2023-04-10T12:55:13.317Z,15.86
2023-04-10T12:57:41.468Z,15.92
2023-04-10T13:00:11.083Z,15.94
2023-04-10T13:02:38.600Z,15.83
2023-04-10T13:05:06.765Z,15.59
2023-04-10T13:07:33.541Z,15.56
2023-04-10T13:10:00.463Z,15.52
2023-04-10T13:12:27.218Z,15.68
2023-04-10T13:14:54.638Z,15.77
2023-04-10T13:17:21.808Z,15.82
2023-04-10T13:19:48.786Z,15.70
2023-04-10T13:22:15.518Z,15.70
2023-04-10T13:24:43.597Z,15.58
2023-04-10T13:27:11.006Z,15.59
2023-04-10T13:29:40.257Z,15.50
2023-04-10T13:32:07.530Z,15.51
2023-04-10T13:34:34.482Z,15.51
2023-04-10T13:37:01.672Z,15.43
2023-04-10T13:39:29.814Z,15.60
2023-04-10T13:41:56.838Z,15.74
2023-04-10T13:44:23.675Z,15.71
2023-04-10T13:46:52.025Z,15.77
2023-04-10T13:49:20.379Z,15.67
2023-04-10T13:51:47.462Z,15.51
2023-04-10T13:54:14.392Z,15.39
2023-04-10T13:56:41.398Z,15.32
2023-04-10T13:59:08.015Z,15.12
2023-04-10T14:01:34.681Z,15.14
2023-04-10T14:04:01.293Z,15.08
2023-04-10T14:06:28.286Z,15.06
2023-04-10T14:08:55.042Z,14.93
2023-04-10T14:11:22.073Z,14.85
2023-04-10T14:13:49.100Z,14.82
2023-04-10T14:16:15.615Z,14.92
2023-04-10T14:18:42.216Z,14.98
2023-04-10T14:21:08.851Z,14.80
2023-04-10T14:23:35.551Z,14.92
2023-04-10T14:26:02.269Z,14.94
2023-04-10T14:28:29.289Z,14.99
2023-04-10T14:30:55.972Z,15.03
2023-04-10T14:33:22.614Z,14.95
2023-04-10T14:35:49.272Z,14.78
2023-04-10T14:38:16.210Z,14.77
2023-04-10T14:40:43.680Z,14.77
2023-04-10T14:43:10.082Z,14.64
2023-04-10T14:45:36.712Z,14.71
2023-04-10T14:48:03.667Z,14.69
2023-04-10T14:50:33.550Z,14.52
2023-04-10T14:53:00.697Z,14.53
2023-04-10T14:55:29.436Z,14.45
2023-04-10T14:57:58.222Z,14.41
2023-04-10T15:00:25.536Z,14.30
2023-04-10T15:02:52.321Z,14.28
2023-04-10T15:05:19.280Z,14.30
2023-04-10T15:07:45.929Z,14.15
2023-04-10T15:10:12.594Z,14.08
2023-04-10T15:12:39.367Z,14.18
2023-04-10T15:15:07.020Z,14.09
2023-04-10T15:17:33.973Z,14.06
2023-04-10T15:20:00.808Z,14.04
2023-04-10T15:22:29.247Z,13.91
2023-04-10T15:24:55.859Z,13.78
2023-04-10T15:27:22.449Z,13.68
2023-04-10T15:29:49.102Z,13.62
2023-04-10T15:32:15.791Z,13.67
2023-04-10T15:34:42.412Z,13.54
2023-04-10T15:37:08.958Z,13.47
2023-04-10T15:39:37.133Z,13.51
2023-04-10T15:42:06.041Z,13.50
2023-04-10T15:44:32.899Z,13.45
2023-04-10T15:46:59.479Z,13.44
2023-04-10T15:49:36.079Z,13.26
2023-04-10T15:52:05.119Z,13.14
2023-04-10T15:54:33.872Z,13.01
2023-04-10T15:57:01.749Z,12.93
2023-04-10T15:59:28.401Z,12.89
2023-04-10T16:01:55.067Z,12.84
2023-04-10T16:04:21.870Z,12.77
2023-04-10T16:06:48.557Z,12.57
2023-04-10T16:09:25.494Z,12.61
2023-04-10T16:11:53.914Z,12.61
2023-04-10T16:14:20.803Z,12.55
2023-04-10T16:16:47.395Z,12.57
2023-04-10T16:19:14.065Z,12.56
2023-04-10T16:21:40.714Z,12.52
2023-04-10T16:24:07.518Z,12.61
2023-04-10T16:26:34.336Z,12.50
2023-04-10T16:29:00.994Z,12.45
2023-04-10T16:31:27.639Z,12.35
2023-04-10T16:33:54.252Z,12.31
2023-04-10T16:36:20.921Z,12.26
2023-04-10T16:38:49.725Z,12.26
2023-04-10T16:41:20.866Z,12.26
2023-04-10T16:43:47.737Z,12.06
2023-04-10T16:46:14.478Z,11.89
2023-04-10T16:48:41.205Z,11.87
2023-04-10T16:51:15.903Z,11.81
2023-04-10T16:53:42.616Z,11.82
2023-04-10T16:56:09.312Z,11.76
2023-04-10T16:58:37.263Z,11.62
2023-04-10T17:01:26.334Z,11.50
2023-04-10T17:03:53.825Z,11.66
2023-04-10T17:06:20.623Z,11.62
2023-04-10T17:08:47.571Z,11.66
2023-04-10T17:11:14.172Z,11.80
2023-04-10T17:13:41.517Z,11.80
2023-04-10T17:16:09.332Z,11.65
2023-04-10T17:18:35.933Z,11.66
2023-04-10T17:21:02.514Z,11.68
2023-04-10T17:23:29.683Z,11.68
2023-04-10T17:25:56.382Z,11.57
2023-04-10T17:28:23.114Z,11.46
2023-04-10T17:30:49.654Z,11.39
2023-04-10T17:33:16.278Z,11.52
2023-04-10T17:35:43.106Z,11.39
2023-04-10T17:38:09.617Z,11.33
2023-04-10T17:40:37.089Z,11.29
2023-04-10T17:43:03.936Z,11.32
2023-04-10T17:45:30.635Z,11.33
2023-04-10T17:47:57.325Z,11.27
2023-04-10T17:50:24.035Z,11.34
2023-04-10T17:52:50.542Z,11.25
2023-04-10T17:55:21.232Z,11.20
2023-04-10T17:57:48.921Z,10.99
2023-04-10T18:00:16.944Z,10.95
2023-04-10T18:02:45.544Z,10.98
2023-04-10T18:05:12.200Z,10.85
2023-04-10T18:07:39.227Z,10.76
2023-04-10T18:10:09.798Z,10.75
2023-04-10T18:12:37.715Z,10.63
2023-04-10T18:15:04.891Z,10.63
2023-04-10T18:17:31.602Z,10.58
2023-04-10T18:19:58.146Z,10.59
2023-04-10T18:22:24.961Z,10.45
2023-04-10T18:24:51.624Z,10.45
2023-04-10T18:27:18.164Z,10.43
2023-04-10T18:29:45.683Z,10.43
2023-04-10T18:32:12.642Z,10.53
2023-04-10T18:34:39.437Z,10.59
2023-04-10T18:37:07.492Z,10.60
2023-04-10T18:39:38.220Z,10.55
2023-04-10T18:42:07.514Z,10.57
2023-04-10T18:44:34.883Z,10.63
2023-04-10T18:47:04.879Z,10.69
2023-04-10T18:49:32.102Z,10.62
2023-04-10T18:51:58.924Z,10.64
2023-04-10T18:54:27.498Z,10.68
2023-04-10T18:56:54.398Z,10.69
2023-04-10T18:59:20.946Z,10.69
2023-04-10T19:01:47.572Z,10.54
2023-04-10T19:04:14.726Z,10.26
2023-04-10T19:06:43.656Z,10.28
2023-04-10T19:09:10.306Z,10.30
2023-04-10T19:11:37.064Z,10.32
2023-04-10T19:14:03.723Z,10.34
2023-04-10T19:16:30.534Z,10.28
2023-04-10T19:18:57.448Z,10.30
2023-04-10T19:21:24.281Z,10.19
2023-04-10T19:23:50.916Z,10.17
2023-04-10T19:26:19.951Z,10.20
2023-04-10T19:28:46.832Z,10.17
2023-04-10T19:31:13.603Z,10.20
2023-04-10T19:33:40.295Z,10.18
2023-04-10T19:36:08.510Z,10.20
2023-04-10T19:38:35.377Z,10.15
2023-04-10T19:41:01.903Z,10.14
2023-04-10T19:43:28.471Z,10.20
2023-04-10T19:45:56.246Z,10.24
2023-04-10T19:48:23.487Z,10.02
2023-04-10T19:50:50.092Z,9.98
2023-04-10T19:53:16.696Z,9.96
2023-04-10T19:55:44.431Z,9.98
2023-04-10T19:58:24.959Z,9.88
2023-04-10T20:01:06.816Z,9.87
2023-04-10T20:03:33.508Z,9.68
2023-04-10T20:06:00.767Z,9.69
2023-04-10T20:08:27.578Z,9.71
2023-04-10T20:10:55.161Z,9.75
2023-04-10T20:13:23.207Z,9.70
2023-04-10T20:15:50.109Z,9.59
2023-04-10T20:18:17.337Z,9.46
2023-04-10T20:20:44.825Z,9.42
2023-04-10T20:23:11.687Z,9.48
2023-04-10T20:25:38.929Z,9.57
2023-04-10T20:28:05.490Z,9.63
2023-04-10T20:30:32.034Z,9.64
2023-04-10T20:32:58.679Z,9.62
2023-04-10T20:35:26.058Z,9.57
2023-04-10T20:37:52.611Z,9.37
2023-04-10T20:40:19.436Z,9.22
2023-04-10T20:42:46.291Z,9.18
2023-04-10T20:45:13.074Z,9.09
2023-04-10T20:47:39.984Z,9.20
2023-04-10T20:50:07.642Z,9.11
2023-04-10T20:52:34.227Z,9.09
2023-04-10T20:55:00.930Z,9.08
2023-04-10T20:57:27.625Z,9.08
2023-04-10T20:59:54.197Z,9.17
2023-04-10T21:02:21.999Z,9.08
2023-04-10T21:04:50.366Z,9.05
2023-04-10T21:07:16.930Z,9.06
2023-04-10T21:09:43.654Z,9.18
2023-04-10T21:12:10.219Z,9.22
2023-04-10T21:14:36.801Z,9.33
2023-04-10T21:17:03.430Z,9.37
2023-04-10T21:19:29.981Z,9.44
2023-04-10T21:21:57.282Z,9.44
2023-04-10T21:24:23.967Z,9.40
2023-04-10T21:26:50.756Z,9.33
2023-04-10T21:29:17.304Z,9.29
2023-04-10T21:31:43.922Z,9.28
2023-04-10T21:34:10.607Z,9.34
2023-04-10T21:36:38.750Z,9.21
2023-04-10T21:39:09.265Z,9.11
2023-04-10T21:41:37.075Z,9.30
2023-04-10T21:44:04.178Z,9.26
2023-04-10T21:46:31.093Z,9.19
2023-04-10T21:48:57.845Z,9.19
2023-04-10T21:51:26.736Z,9.24
2023-04-10T21:53:53.453Z,9.26
2023-04-10T21:56:20.694Z,9.29
2023-04-10T21:58:47.257Z,9.31
2023-04-10T22:01:13.921Z,9.27
2023-04-10T22:03:41.573Z,9.22
2023-04-10T22:06:09.080Z,9.17
2023-04-10T22:08:38.274Z,9.19
2023-04-10T22:11:06.062Z,9.12
2023-04-10T22:13:32.921Z,9.01
2023-04-10T22:16:01.946Z,9.18
2023-04-10T22:18:28.908Z,9.23
2023-04-10T22:20:55.509Z,9.30
2023-04-10T22:23:22.250Z,9.25
2023-04-10T22:25:48.820Z,9.27
2023-04-10T22:28:15.775Z,9.24
2023-04-10T22:30:42.426Z,9.11
2023-04-10T22:33:11.891Z,9.22
2023-04-10T22:35:38.529Z,9.01
2023-04-10T22:38:05.278Z,8.90
2023-04-10T22:40:31.851Z,8.74
2023-04-10T22:42:58.448Z,8.80
2023-04-10T22:45:25.008Z,8.91
2023-04-10T22:47:51.569Z,8.88
2023-04-10T22:50:18.399Z,8.82
2023-04-10T22:52:44.989Z,8.81
2023-04-10T22:55:11.707Z,8.83
2023-04-10T22:57:38.424Z,8.88
2023-04-10T23:00:05.503Z,8.82
2023-04-10T23:02:32.128Z,8.73
2023-04-10T23:04:58.738Z,8.86
2023-04-10T23:07:27.808Z,8.77
2023-04-10T23:09:54.440Z,8.81
2023-04-10T23:12:21.009Z,8.79
2023-04-10T23:14:47.595Z,8.81
2023-04-10T23:17:14.148Z,8.86
2023-04-10T23:19:40.808Z,8.96
2023-04-10T23:22:07.328Z,9.01
2023-04-10T23:24:33.924Z,9.04
2023-04-10T23:27:00.574Z,8.97
2023-04-10T23:29:27.125Z,8.98
2023-04-10T23:31:53.649Z,9.01
2023-04-10T23:34:21.170Z,8.97
2023-04-10T23:36:47.701Z,9.04
2023-04-10T23:39:14.380Z,9.05
2023-04-10T23:41:41.061Z,8.90
2023-04-10T23:44:07.653Z,8.96
2023-04-10T23:46:34.291Z,8.90
2023-04-10T23:49:00.897Z,8.92
2023-04-10T23:51:28.053Z,8.81
2023-04-10T23:53:54.590Z,9.02
2023-04-10T23:56:21.649Z,8.88
2023-04-10T23:58:48.172Z,8.90
